Time;durP1;ratioP1;P1;durP2;ratioP2;P2;SDS_P1;SDS_P2;PMS_P1;PMS_P2;Temp;Humidity;BMP_temperature;BMP_pressure;BME280_temperature;BME280_humidity;BME280_pressure;Samples;Min_cycle;Max_cycle;Signal;HPM_P1;HPM_P2
2022/03/27 00:01:30;;;;;;;4.20;3.45;;;13.70;36.90;;;;;;5052489;28;20261;-31
2022/03/27 00:03:56;;;;;;;8.47;4.20;;;13.60;37.50;;;;;;5052492;28;20260;-32
2022/03/27 00:06:22;;;;;;;5.87;3.00;;;13.60;37.70;;;;;;5051589;28;20411;-31
2022/03/27 00:08:48;;;;;;;5.30;3.40;;;13.60;38.00;;;;;;5052095;28;20522;-32
2022/03/27 00:11:26;;;;;;;6.97;3.90;;;13.60;37.80;;;;;;5052277;28;20204;-31
2022/03/27 00:13:52;;;;;;;8.50;3.25;;;13.60;38.10;;;;;;5052448;28;20161;-31
2022/03/27 00:16:18;;;;;;;5.20;3.75;;;13.60;37.90;;;;;;5052314;28;20173;-31
2022/03/27 00:18:44;;;;;;;6.93;2.90;;;13.60;37.70;;;;;;5052098;28;20185;-32
2022/03/27 00:21:10;;;;;;;3.63;2.80;;;13.70;37.70;;;;;;5052297;28;20400;-31
2022/03/27 00:23:36;;;;;;;4.75;3.03;;;13.60;38.10;;;;;;5052140;28;20411;-30
2022/03/27 00:26:03;;;;;;;4.47;3.20;;;13.60;38.10;;;;;;5051179;28;20181;-31
2022/03/27 00:28:33;;;;;;;4.72;2.80;;;13.60;38.60;;;;;;5043381;28;20455;-31
2022/03/27 00:31:04;;;;;;;4.53;3.40;;;13.60;37.90;;;;;;5032036;28;20201;-31
2022/03/27 00:33:31;;;;;;;5.95;4.20;;;13.50;38.00;;;;;;5032151;28;20618;-32
2022/03/27 00:35:58;;;;;;;6.32;3.10;;;13.50;37.90;;;;;;5032122;28;20178;-31
2022/03/27 00:38:29;;;;;;;5.43;4.30;;;13.50;38.00;;;;;;5031827;28;20198;-31
2022/03/27 00:40:56;;;;;;;4.65;3.40;;;13.40;37.80;;;;;;5031891;28;20216;-31
2022/03/27 00:43:23;;;;;;;6.65;3.63;;;13.40;37.90;;;;;;5032119;28;20162;-31
2022/03/27 00:45:49;;;;;;;6.07;3.67;;;13.40;37.60;;;;;;5032048;28;20178;-31
2022/03/27 00:48:18;;;;;;;10.40;5.95;;;13.30;37.50;;;;;;5046398;28;20211;-31
2022/03/27 00:50:45;;;;;;;4.38;2.88;;;13.30;37.70;;;;;;5051550;28;20203;-31
2022/03/27 00:53:11;;;;;;;3.78;3.15;;;13.30;37.70;;;;;;5051899;28;20252;-31
2022/03/27 00:55:37;;;;;;;8.33;3.40;;;13.20;37.90;;;;;;5051974;28;20296;-31
2022/03/27 00:58:04;;;;;;;5.70;2.70;;;13.10;38.50;;;;;;5051857;28;20262;-31
2022/03/27 01:01:01;;;;;;;6.93;3.75;;;13.00;38.40;;;;;;5051694;28;20173;-31
2022/03/27 01:03:27;;;;;;;6.00;3.50;;;13.00;38.20;;;;;;5050976;28;20719;-31
2022/03/27 01:05:57;;;;;;;5.93;2.90;;;12.90;37.90;;;;;;5051913;28;20188;-31
2022/03/27 01:11:16;;;;;;;4.88;3.30;;;12.80;37.90;;;;;;5051666;28;20604;-31
2022/03/27 01:13:49;;;;;;;6.97;5.00;;;12.80;38.10;;;;;;5051644;28;20196;-31
2022/03/27 01:16:30;;;;;;;5.85;3.72;;;12.70;38.70;;;;;;5051672;28;20165;-31
2022/03/27 01:18:56;;;;;;;5.75;2.85;;;12.60;38.60;;;;;;5054424;28;20275;-31
2022/03/27 01:21:22;;;;;;;6.07;3.88;;;12.50;38.50;;;;;;5055564;28;20185;-30
2022/03/27 01:23:48;;;;;;;5.30;3.23;;;12.50;38.50;;;;;;5055471;28;20173;-30
2022/03/27 01:26:13;;;;;;;4.00;2.80;;;12.40;38.90;;;;;;5055399;28;20252;-30
2022/03/27 01:28:39;;;;;;;7.53;2.73;;;12.40;38.80;;;;;;5055109;28;20196;-31
2022/03/27 01:31:07;;;;;;;6.97;3.50;;;12.40;39.10;;;;;;5055275;28;20228;-31
2022/03/27 01:33:33;;;;;;;4.82;2.90;;;12.40;39.10;;;;;;5055395;28;20173;-31
2022/03/27 01:35:58;;;;;;;4.82;3.08;;;12.40;38.90;;;;;;5055283;28;20205;-30
2022/03/27 01:38:24;;;;;;;4.07;2.97;;;12.40;38.60;;;;;;5055083;28;20683;-32
2022/03/27 01:40:51;;;;;;;8.73;2.80;;;12.50;38.80;;;;;;5055001;28;20176;-31
2022/03/27 01:43:17;;;;;;;5.13;3.03;;;12.40;39.10;;;;;;5055160;28;20718;-31
2022/03/27 01:45:43;;;;;;;7.20;4.40;;;12.40;38.60;;;;;;5056704;28;20177;-32
2022/03/27 01:48:08;;;;;;;5.00;3.43;;;12.40;38.70;;;;;;5056604;28;20200;-32
2022/03/27 01:50:34;;;;;;;4.57;3.17;;;12.40;38.60;;;;;;5055938;28;20597;-32
2022/03/27 01:53:00;;;;;;;4.40;3.00;;;12.40;38.90;;;;;;5056226;28;20189;-31
2022/03/27 01:55:26;;;;;;;6.97;3.90;;;12.40;38.70;;;;;;5056074;28;20406;-32
2022/03/27 01:57:52;;;;;;;7.00;3.80;;;12.30;38.80;;;;;;5052793;28;20223;-32
2022/03/27 02:00:18;;;;;;;5.33;3.53;;;12.30;38.70;;;;;;5050168;28;20899;-32
2022/03/27 02:02:43;;;;;;;7.50;3.88;;;12.30;38.70;;;;;;5056048;28;20243;-31
2022/03/27 02:05:09;;;;;;;5.20;3.30;;;12.30;38.60;;;;;;5055908;28;20447;-32
2022/03/27 02:07:42;;;;;;;6.90;3.50;;;12.30;38.60;;;;;;5055805;28;20259;-32
2022/03/27 02:10:08;;;;;;;4.13;2.75;;;12.30;38.70;;;;;;5055562;28;20215;-31
2022/03/27 02:12:35;;;;;;;4.93;2.67;;;12.30;39.20;;;;;;5055677;28;20239;-32
2022/03/27 02:15:05;;;;;;;3.78;3.10;;;12.20;38.70;;;;;;5055607;28;20162;-32
2022/03/27 02:17:31;;;;;;;4.47;3.10;;;12.20;39.00;;;;;;5055596;28;20150;-32
2022/03/27 02:19:56;;;;;;;3.97;3.33;;;12.20;38.60;;;;;;5055146;28;20196;-32
2022/03/27 02:22:22;;;;;;;4.47;2.90;;;12.10;39.20;;;;;;5055509;28;20169;-31
2022/03/27 02:24:48;;;;;;;3.97;2.60;;;12.00;39.30;;;;;;5055405;28;20219;-32
2022/03/27 02:27:14;;;;;;;3.30;2.80;;;12.00;39.00;;;;;;5055791;28;20688;-32
2022/03/27 02:29:39;;;;;;;8.77;3.87;;;11.90;39.20;;;;;;5056725;28;20274;-32
2022/03/27 02:32:06;;;;;;;6.13;3.57;;;11.80;39.10;;;;;;5059084;28;20177;-31
2022/03/27 02:34:31;;;;;;;4.63;3.40;;;11.80;38.90;;;;;;5057255;28;20170;-32
2022/03/27 02:36:57;;;;;;;12.10;2.70;;;11.80;39.00;;;;;;5055273;28;20245;-32
2022/03/27 02:39:23;;;;;;;7.53;5.10;;;11.70;39.00;;;;;;5054784;28;20284;-31
2022/03/27 02:41:48;;;;;;;9.03;5.57;;;11.70;38.80;;;;;;5055274;28;20176;-32
2022/03/27 02:44:14;;;;;;;12.37;4.80;;;11.60;38.70;;;;;;5055398;28;20522;-32
2022/03/27 02:46:40;;;;;;;12.07;7.18;;;11.50;38.80;;;;;;5055129;28;20176;-31
2022/03/27 02:49:06;;;;;;;12.40;5.38;;;11.50;38.70;;;;;;5055261;28;20247;-31
2022/03/27 02:51:32;;;;;;;11.83;5.63;;;11.40;38.80;;;;;;5055087;28;20189;-31
2022/03/27 02:53:57;;;;;;;10.93;4.50;;;11.40;38.70;;;;;;5055404;28;20242;-31
2022/03/27 02:56:23;;;;;;;11.13;5.17;;;11.30;38.70;;;;;;5055234;28;20172;-32
2022/03/27 02:58:49;;;;;;;7.67;5.07;;;11.30;38.70;;;;;;5046665;28;20812;-32
2022/03/27 03:01:15;;;;;;;7.13;5.03;;;11.20;38.80;;;;;;5055026;28;20173;-32
2022/03/27 03:03:42;;;;;;;5.83;3.80;;;11.10;39.00;;;;;;5055305;28;20171;-32
2022/03/27 03:06:09;;;;;;;9.57;4.03;;;11.00;38.80;;;;;;5055005;28;20412;-31
2022/03/27 03:08:38;;;;;;;3.88;2.40;;;11.00;39.00;;;;;;5054299;28;20253;-31
2022/03/27 03:11:04;;;;;;;4.35;2.67;;;10.90;39.10;;;;;;5054771;28;20205;-32
2022/03/27 03:13:30;;;;;;;5.10;2.75;;;10.80;39.70;;;;;;5055101;28;20215;-32
2022/03/27 03:15:57;;;;;;;6.03;4.23;;;10.70;39.40;;;;;;5054581;28;20165;-31
2022/03/27 03:18:24;;;;;;;6.72;4.32;;;10.60;39.80;;;;;;5054242;28;20915;-32
2022/03/27 03:20:50;;;;;;;4.50;3.08;;;10.60;39.60;;;;;;5054013;28;20545;-31
2022/03/27 03:23:16;;;;;;;4.22;3.03;;;10.60;39.60;;;;;;5054558;28;20637;-32
2022/03/27 03:25:42;;;;;;;3.92;2.83;;;10.60;39.20;;;;;;5054398;28;20641;-32
2022/03/27 03:28:09;;;;;;;4.07;3.15;;;10.60;39.10;;;;;;5052884;28;20193;-32
2022/03/27 03:30:35;;;;;;;6.30;3.00;;;10.60;39.10;;;;;;5054199;28;20204;-32
2022/03/27 03:33:01;;;;;;;4.78;3.30;;;11.20;39.00;;;;;;5054191;28;20230;-32
2022/03/27 03:35:27;;;;;;;5.80;2.67;;;10.50;38.80;;;;;;5053232;28;20208;-32
2022/03/27 03:37:54;;;;;;;6.90;4.70;;;10.40;39.20;;;;;;5053255;28;20400;-32
2022/03/27 03:40:19;;;;;;;3.65;2.63;;;10.40;39.50;;;;;;5053174;28;20255;-32
2022/03/27 03:42:45;;;;;;;4.27;2.83;;;10.30;39.60;;;;;;5053351;28;20252;-32
2022/03/27 03:45:11;;;;;;;6.37;3.50;;;10.20;39.50;;;;;;5053218;28;20228;-32
2022/03/27 03:47:37;;;;;;;3.67;2.57;;;10.20;39.30;;;;;;5053279;28;20172;-32
2022/03/27 03:50:04;;;;;;;3.33;2.10;;;10.20;39.20;;;;;;5052906;28;20220;-32
2022/03/27 03:52:30;;;;;;;6.40;2.83;;;10.20;39.10;;;;;;5053399;28;20165;-32
2022/03/27 03:54:56;;;;;;;4.73;3.30;;;10.20;39.30;;;;;;5053232;28;20180;-32
2022/03/27 03:57:21;;;;;;;4.53;3.03;;;10.10;39.70;;;;;;5053308;28;20172;-32
2022/03/27 03:59:47;;;;;;;6.50;4.60;;;10.10;39.40;;;;;;5052841;28;20192;-32
2022/03/27 04:02:15;;;;;;;4.57;3.27;;;10.10;39.10;;;;;;5053221;28;20515;-32
2022/03/27 04:04:41;;;;;;;5.18;2.70;;;10.00;38.70;;;;;;5053247;28;20172;-32
2022/03/27 04:07:06;;;;;;;4.57;3.73;;;10.00;38.70;;;;;;5053297;28;20169;-32
2022/03/27 04:09:32;;;;;;;7.20;3.27;;;9.90;38.90;;;;;;5054532;28;20247;-32
2022/03/27 04:11:58;;;;;;;7.40;3.37;;;9.90;38.70;;;;;;5054442;28;20169;-32
2022/03/27 04:14:24;;;;;;;3.85;2.42;;;9.90;38.70;;;;;;5054417;28;20494;-32
2022/03/27 04:16:50;;;;;;;5.20;2.97;;;9.80;38.60;;;;;;5054343;28;20172;-32
2022/03/27 04:19:15;;;;;;;6.37;3.40;;;9.80;39.10;;;;;;5053568;28;20431;-32
2022/03/27 04:21:42;;;;;;;4.67;3.50;;;9.70;39.00;;;;;;5054087;28;20176;-32
2022/03/27 04:24:08;;;;;;;4.53;4.07;;;9.70;39.00;;;;;;5054000;28;20169;-32
2022/03/27 04:26:35;;;;;;;4.40;3.38;;;9.70;39.60;;;;;;5053943;28;20173;-32
2022/03/27 04:29:02;;;;;;;6.70;4.10;;;9.50;40.20;;;;;;5053153;28;20208;-32
2022/03/27 04:31:29;;;;;;;6.85;3.55;;;9.40;40.40;;;;;;5052955;28;20288;-31
2022/03/27 04:33:55;;;;;;;6.97;3.95;;;9.40;40.20;;;;;;5053042;28;20584;-32
2022/03/27 04:36:21;;;;;;;7.60;3.35;;;9.30;39.90;;;;;;5053178;28;20656;-31
2022/03/27 04:38:47;;;;;;;3.75;2.63;;;9.30;39.90;;;;;;5052606;28;20205;-32
2022/03/27 04:41:13;;;;;;;3.70;2.27;;;9.30;39.80;;;;;;5052976;28;20178;-31
2022/03/27 04:43:38;;;;;;;3.90;3.43;;;9.30;39.70;;;;;;5051689;28;20226;-32
2022/03/27 04:46:04;;;;;;;7.87;5.43;;;9.30;39.50;;;;;;5052814;28;20760;-32
2022/03/27 04:48:30;;;;;;;4.30;2.97;;;9.30;39.40;;;;;;5051425;28;20216;-32
2022/03/27 04:50:56;;;;;;;4.23;3.30;;;9.30;39.40;;;;;;5052229;28;20482;-32
2022/03/27 04:53:21;;;;;;;5.60;2.97;;;9.20;39.10;;;;;;5054596;28;20403;-32
2022/03/27 04:55:47;;;;;;;4.70;3.20;;;9.20;39.30;;;;;;5056827;28;20400;-31
2022/03/27 04:58:13;;;;;;;5.80;2.80;;;9.20;39.40;;;;;;5056502;28;20185;-32
2022/03/27 05:00:39;;;;;;;7.10;4.10;;;9.20;39.40;;;;;;5056627;28;20173;-32
2022/03/27 05:03:05;;;;;;;6.40;3.77;;;9.10;39.20;;;;;;5056332;28;20403;-32
2022/03/27 05:05:31;;;;;;;5.83;3.53;;;9.10;39.10;;;;;;5056077;28;20180;-32
2022/03/27 05:07:58;;;;;;;7.90;3.53;;;9.10;39.50;;;;;;5056085;28;20421;-32
2022/03/27 05:10:24;;;;;;;5.50;3.05;;;9.10;39.50;;;;;;5055796;28;20603;-31
2022/03/27 05:12:50;;;;;;;2.78;2.47;;;9.10;39.40;;;;;;5056146;28;20173;-32
2022/03/27 05:15:16;;;;;;;6.10;4.60;;;9.10;39.30;;;;;;5055885;28;20178;-32
2022/03/27 05:17:50;;;;;;;8.90;4.07;;;9.10;39.20;;;;;;5055787;28;20501;-32
2022/03/27 05:20:16;;;;;;;4.15;2.92;;;9.10;39.70;;;;;;5055723;28;20915;-30
2022/03/27 05:22:42;;;;;;;4.13;3.20;;;9.20;39.70;;;;;;5054792;28;20613;-31
2022/03/27 05:25:09;;;;;;;6.37;3.70;;;9.10;39.80;;;;;;5055880;28;20204;-31
2022/03/27 05:27:59;;;;;;;5.38;3.80;;;9.20;39.50;;;;;;5056004;28;20410;-31
2022/03/27 05:30:27;;;;;;;8.23;4.07;;;9.30;39.70;;;;;;5055325;28;20530;-32
2022/03/27 05:32:54;;;;;;;4.93;2.90;;;9.30;39.80;;;;;;5055400;28;20161;-32
2022/03/27 05:35:20;;;;;;;5.10;3.15;;;9.40;39.90;;;;;;5055605;28;20549;-32
2022/03/27 05:37:47;;;;;;;6.57;3.80;;;9.50;40.00;;;;;;5055109;28;20166;-31
2022/03/27 05:40:15;;;;;;;7.35;4.28;;;9.50;40.10;;;;;;5053937;28;20260;-32
2022/03/27 05:42:42;;;;;;;3.03;2.35;;;9.60;40.10;;;;;;5046396;28;20177;-31
2022/03/27 05:45:09;;;;;;;4.03;3.15;;;9.70;40.50;;;;;;5055195;28;20180;-31
2022/03/27 05:47:35;;;;;;;5.75;3.25;;;9.70;40.80;;;;;;5055148;28;20223;-32
2022/03/27 05:50:01;;;;;;;3.47;3.17;;;9.80;40.90;;;;;;5054649;28;20200;-31
2022/03/27 05:52:27;;;;;;;5.00;3.20;;;9.90;41.40;;;;;;5054935;28;20177;-31
2022/03/27 05:54:52;;;;;;;5.70;3.67;;;10.00;41.10;;;;;;5054930;28;20407;-31
2022/03/27 05:57:19;;;;;;;5.80;4.23;;;10.10;41.30;;;;;;5054933;28;20945;-31
2022/03/27 05:59:46;;;;;;;6.43;3.40;;;10.20;41.30;;;;;;5054645;28;20519;-30
2022/03/27 06:02:13;;;;;;;5.43;3.70;;;10.30;41.70;;;;;;5054850;28;20161;-31
2022/03/27 06:04:39;;;;;;;3.70;2.85;;;10.40;41.00;;;;;;5053344;28;20563;-31
2022/03/27 06:07:05;;;;;;;7.83;4.03;;;10.50;41.80;;;;;;5054647;28;20169;-31
2022/03/27 06:09:32;;;;;;;6.72;3.35;;;10.70;41.60;;;;;;5054330;28;20438;-31
2022/03/27 06:11:58;;;;;;;5.55;3.10;;;10.80;41.40;;;;;;5054496;28;20211;-31
2022/03/27 06:14:24;;;;;;;4.30;3.03;;;10.90;41.40;;;;;;5054622;28;20529;-31
2022/03/27 06:16:49;;;;;;;5.57;3.53;;;11.00;41.40;;;;;;5054529;28;20426;-31
2022/03/27 06:19:15;;;;;;;9.90;4.33;;;11.10;41.80;;;;;;5054238;28;20537;-31
2022/03/27 06:21:43;;;;;;;5.93;4.57;;;11.20;41.20;;;;;;5054421;28;20193;-31
2022/03/27 06:24:09;;;;;;;7.25;3.72;;;11.30;41.20;;;;;;5054322;28;20169;-31
2022/03/27 06:26:35;;;;;;;5.20;3.50;;;11.40;40.70;;;;;;5054358;28;20660;-31
2022/03/27 06:29:00;;;;;;;5.60;4.20;;;11.50;41.00;;;;;;5054026;28;20246;-31
2022/03/27 06:31:26;;;;;;;5.47;3.03;;;11.60;40.70;;;;;;5054303;28;20849;-31
2022/03/27 06:33:51;;;;;;;4.60;3.40;;;11.70;41.00;;;;;;5054341;28;20599;-31
2022/03/27 06:36:18;;;;;;;5.70;3.80;;;11.80;40.50;;;;;;5054141;28;20207;-31
2022/03/27 06:38:43;;;;;;;7.60;4.13;;;11.90;40.50;;;;;;5053714;28;20233;-32
2022/03/27 06:41:09;;;;;;;4.93;3.23;;;12.10;40.30;;;;;;5054157;28;20231;-31
2022/03/27 06:43:36;;;;;;;4.50;3.33;;;12.20;40.10;;;;;;5053997;28;20412;-31
2022/03/27 06:46:02;;;;;;;4.93;3.60;;;12.30;40.00;;;;;;5054049;28;20169;-32
2022/03/27 06:48:28;;;;;;;9.93;3.47;;;12.40;40.00;;;;;;5054258;28;20192;-30
2022/03/27 06:50:54;;;;;;;5.20;3.90;;;12.50;40.50;;;;;;5055346;28;20185;-32
2022/03/27 06:53:24;;;;;;;6.72;4.25;;;12.50;40.90;;;;;;5055633;28;20831;-32
2022/03/27 06:55:50;;;;;;;6.30;3.92;;;12.50;40.30;;;;;;5053860;28;20173;-31
2022/03/27 06:58:16;;;;;;;6.95;3.97;;;12.60;40.80;;;;;;5053823;28;20281;-32
2022/03/27 07:03:26;;;;;;;6.78;3.97;;;12.80;40.30;;;;;;5053633;28;20910;-32
2022/03/27 07:05:52;;;;;;;7.40;4.00;;;12.90;40.20;;;;;;5053494;28;20256;-32
2022/03/27 07:08:20;;;;;;;9.93;4.43;;;13.00;39.90;;;;;;5053504;28;20205;-32
2022/03/27 07:10:47;;;;;;;14.25;8.10;;;13.20;39.90;;;;;;5053522;28;20255;-32
2022/03/27 07:13:14;;;;;;;8.38;5.10;;;13.20;39.80;;;;;;5053618;28;20526;-32
2022/03/27 07:15:42;;;;;;;5.65;4.18;;;13.30;40.10;;;;;;5053523;28;20665;-32
2022/03/27 07:18:08;;;;;;;7.35;3.40;;;13.30;39.70;;;;;;5053689;28;20276;-32
2022/03/27 07:20:36;;;;;;;7.72;5.68;;;13.40;39.60;;;;;;5053256;28;20563;-31
2022/03/27 07:23:04;;;;;;;14.43;5.05;;;13.50;39.40;;;;;;5052204;28;20272;-32
2022/03/27 07:25:35;;;;;;;8.05;4.15;;;13.60;39.30;;;;;;5053519;28;20165;-32
2022/03/27 07:28:05;;;;;;;7.25;3.58;;;13.60;39.10;;;;;;5053300;28;20162;-31
2022/03/27 07:30:32;;;;;;;7.78;3.58;;;13.70;39.50;;;;;;5052955;28;20189;-32
2022/03/27 07:32:58;;;;;;;6.35;4.57;;;13.70;39.00;;;;;;5053182;28;20260;-31
2022/03/27 07:35:27;;;;;;;7.35;4.13;;;13.70;39.00;;;;;;5053250;28;20158;-31
2022/03/27 07:37:54;;;;;;;10.65;5.10;;;13.80;38.80;;;;;;5052746;28;20235;-32
2022/03/27 07:40:23;;;;;;;9.55;4.88;;;13.90;39.00;;;;;;5052871;28;20197;-32
2022/03/27 07:42:50;;;;;;;10.25;4.22;;;14.10;38.90;;;;;;5052929;28;20173;-32
2022/03/27 07:45:21;;;;;;;7.60;4.70;;;14.20;38.50;;;;;;5052828;28;20537;-30
2022/03/27 07:47:49;;;;;;;6.72;4.50;;;14.30;38.60;;;;;;5052908;28;20157;-32
2022/03/27 07:50:17;;;;;;;5.43;4.50;;;14.30;38.40;;;;;;5052385;28;20204;-31
2022/03/27 07:52:43;;;;;;;7.82;4.43;;;14.40;38.50;;;;;;5051032;28;20182;-32
2022/03/27 07:55:11;;;;;;;9.15;3.90;;;14.70;38.50;;;;;;5045978;28;20166;-31
2022/03/27 07:57:37;;;;;;;7.72;5.57;;;14.90;38.20;;;;;;5052657;28;20213;-31
2022/03/27 08:00:04;;;;;;;6.97;4.28;;;15.20;38.30;;;;;;5052459;28;20212;-31
2022/03/27 08:02:30;;;;;;;5.30;4.00;;;15.40;38.00;;;;;;5052800;28;20169;-32
2022/03/27 08:04:57;;;;;;;5.17;3.93;;;15.60;37.60;;;;;;5052612;28;20541;-31
2022/03/27 08:07:22;;;;;;;8.38;5.85;;;15.80;37.20;;;;;;5052471;28;20408;-32
2022/03/27 08:09:48;;;;;;;5.63;4.17;;;16.00;37.20;;;;;;5052146;28;20242;-31
2022/03/27 08:12:14;;;;;;;6.83;4.30;;;16.20;36.90;;;;;;5052404;28;20165;-32
2022/03/27 08:14:40;;;;;;;6.83;3.70;;;16.40;36.70;;;;;;5052576;28;20550;-31
2022/03/27 08:17:07;;;;;;;7.82;5.57;;;16.60;36.50;;;;;;5052542;28;20184;-32
2022/03/27 08:19:33;;;;;;;8.07;4.40;;;16.80;36.20;;;;;;5052071;28;20185;-31
2022/03/27 08:22:00;;;;;;;7.00;3.72;;;17.00;35.90;;;;;;5052254;28;20192;-31
2022/03/27 08:24:25;;;;;;;9.63;5.00;;;17.20;35.90;;;;;;5052220;28;20244;-32
2022/03/27 08:26:58;;;;;;;6.70;3.67;;;17.30;35.30;;;;;;5051662;28;20181;-31
2022/03/27 08:29:29;;;;;;;5.72;3.42;;;17.50;35.50;;;;;;5051751;28;20216;-31
2022/03/27 08:31:58;;;;;;;6.47;4.63;;;17.60;34.30;;;;;;5051901;28;20200;-32
2022/03/27 08:34:24;;;;;;;4.63;3.15;;;17.70;34.80;;;;;;5051930;28;20682;-32
2022/03/27 08:36:50;;;;;;;7.33;4.03;;;17.80;34.90;;;;;;5051962;28;20209;-32
2022/03/27 08:39:16;;;;;;;8.00;3.87;;;18.10;34.40;;;;;;5051657;28;20573;-32
2022/03/27 08:41:43;;;;;;;4.87;3.00;;;18.20;33.90;;;;;;5051998;28;20169;-32
2022/03/27 08:44:14;;;;;;;5.20;3.45;;;18.40;32.90;;;;;;5051976;28;20407;-32
2022/03/27 08:46:41;;;;;;;7.15;4.88;;;18.50;31.90;;;;;;5052027;28;20248;-32
2022/03/27 08:49:18;;;;;;;5.28;3.50;;;18.50;30.70;;;;;;5051654;28;20220;-31
2022/03/27 08:51:54;;;;;;;8.35;3.40;;;18.30;31.20;;;;;;5050325;28;20207;-32
2022/03/27 08:54:24;;;;;;;4.60;3.58;;;18.10;30.30;;;;;;5047483;28;20157;-32
2022/03/27 08:57:21;;;;;;;7.60;3.20;;;18.10;31.90;;;;;;5053152;28;20249;-32
2022/03/27 08:59:50;;;;;;;10.45;4.10;;;18.10;31.90;;;;;;5051552;28;20250;-32
2022/03/27 09:02:19;;;;;;;4.25;3.17;;;18.70;32.20;;;;;;5051754;28;20166;-32
2022/03/27 09:04:45;;;;;;;7.20;4.00;;;18.30;31.30;;;;;;5051731;28;20165;-32
2022/03/27 09:07:11;;;;;;;5.22;3.30;;;18.20;30.70;;;;;;5051851;28;20173;-32
2022/03/27 09:09:36;;;;;;;4.73;3.07;;;18.20;31.20;;;;;;5051508;28;20177;-32
2022/03/27 09:12:04;;;;;;;7.47;4.30;;;18.30;31.10;;;;;;5051707;28;20477;-32
2022/03/27 09:14:33;;;;;;;7.38;4.47;;;18.40;31.10;;;;;;5051707;28;20166;-32
2022/03/27 09:17:07;;;;;;;7.78;5.30;;;18.60;31.20;;;;;;5051756;28;20169;-32
2022/03/27 09:19:41;;;;;;;6.28;3.97;;;18.70;30.00;;;;;;5051330;28;20216;-32
2022/03/27 09:22:16;;;;;;;5.82;4.35;;;18.80;31.00;;;;;;5051584;28;20637;-32
2022/03/27 09:24:46;;;;;;;6.13;3.22;;;19.00;29.30;;;;;;5051586;28;20165;-32
2022/03/27 09:27:14;;;;;;;4.30;3.25;;;18.90;30.20;;;;;;5051510;28;20201;-32
2022/03/27 09:29:59;;;;;;;6.90;4.32;;;18.80;29.70;;;;;;5042738;28;20199;-32
2022/03/27 09:32:37;;;;;;;6.10;4.13;;;19.00;30.40;;;;;;5051618;28;20181;-31
2022/03/27 09:35:08;;;;;;;7.13;3.90;;;19.20;30.60;;;;;;5051661;28;20165;-32
2022/03/27 09:37:39;;;;;;;6.30;3.88;;;19.40;29.60;;;;;;5051652;28;20166;-31
2022/03/27 09:40:06;;;;;;;6.88;5.10;;;19.40;28.40;;;;;;5054231;28;20894;-31
2022/03/27 09:42:32;;;;;;;5.18;2.92;;;19.20;28.50;;;;;;5055509;28;20587;-32
2022/03/27 09:45:19;;;;;;;5.65;4.38;;;19.00;28.70;;;;;;5055131;28;20257;-32
2022/03/27 09:47:50;;;;;;;7.07;5.00;;;19.20;28.70;;;;;;5055003;28;20179;-32
2022/03/27 09:50:34;;;;;;;6.88;4.32;;;19.10;28.60;;;;;;5054852;28;20197;-32
2022/03/27 09:53:20;;;;;;;5.35;3.58;;;19.30;30.30;;;;;;5055046;28;20177;-32
2022/03/27 09:55:50;;;;;;;7.03;4.82;;;19.80;30.40;;;;;;5054939;28;20653;-32
2022/03/27 09:58:16;;;;;;;7.05;4.95;;;20.10;30.10;;;;;;5054970;28;20529;-31
2022/03/27 10:00:42;;;;;;;9.17;4.90;;;20.40;28.80;;;;;;5054545;28;20183;-32
2022/03/27 10:03:10;;;;;;;5.20;3.70;;;20.60;28.50;;;;;;5076603;22;20217;-33
2022/03/27 10:05:37;;;;;;;5.00;3.70;;;20.90;27.50;;;;;;5054553;28;20180;-33
2022/03/27 10:08:03;;;;;;;6.45;4.45;;;21.00;27.20;;;;;;5054635;28;20177;-33
2022/03/27 10:10:29;;;;;;;7.97;5.15;;;21.20;25.50;;;;;;5054444;28;20240;-33
2022/03/27 10:12:57;;;;;;;6.90;4.07;;;21.10;25.30;;;;;;5054539;28;20205;-33
2022/03/27 10:15:28;;;;;;;4.38;3.50;;;21.20;27.20;;;;;;5054509;28;20404;-33
2022/03/27 10:18:00;;;;;;;8.15;4.57;;;21.40;27.40;;;;;;5054459;28;20179;-33
2022/03/27 10:20:34;;;;;;;6.38;4.38;;;21.70;28.30;;;;;;5054585;28;20256;-33
2022/03/27 10:23:05;;;;;;;5.57;3.65;;;22.00;28.10;;;;;;5054259;28;20226;-34
2022/03/27 10:25:39;;;;;;;9.47;5.13;;;22.20;25.10;;;;;;5054315;28;20570;-33
2022/03/27 10:28:07;;;;;;;8.87;4.33;;;22.30;25.20;;;;;;5054258;28;20520;-33
2022/03/27 10:30:33;;;;;;;6.07;3.72;;;22.30;25.70;;;;;;5053941;28;21090;-33
2022/03/27 10:33:01;;;;;;;5.97;3.37;;;22.50;26.60;;;;;;5054021;28;20696;-34
2022/03/27 10:35:49;;;;;;;4.80;3.40;;;22.60;25.60;;;;;;5054141;28;20435;-33
2022/03/27 10:38:33;;;;;;;7.18;4.20;;;22.80;25.80;;;;;;5053361;28;20420;-33
2022/03/27 10:41:09;;;;;;;5.40;3.53;;;23.00;24.80;;;;;;5053909;28;20162;-33
2022/03/27 10:43:37;;;;;;;6.33;4.60;;;23.20;25.00;;;;;;5053930;28;21141;-33
2022/03/27 10:46:15;;;;;;;5.20;4.03;;;23.20;22.00;;;;;;5053928;28;20431;-33
2022/03/27 10:48:42;;;;;;;6.37;3.60;;;23.20;23.30;;;;;;5054041;28;20789;-34
2022/03/27 10:51:28;;;;;;;6.27;3.40;;;23.20;23.40;;;;;;5053219;28;20462;-34
2022/03/27 10:54:18;;;;;;;4.97;3.40;;;23.00;22.40;;;;;;5053609;28;20438;-34
2022/03/27 10:56:45;;;;;;;5.50;3.80;;;23.10;24.10;;;;;;5053717;28;20430;-34
2022/03/27 10:59:20;;;;;;;5.93;3.67;;;23.30;23.60;;;;;;5053684;28;20400;-34
2022/03/27 11:01:58;;;;;;;6.30;4.77;;;23.50;23.00;;;;;;5053753;28;20503;-34
2022/03/27 11:04:38;;;;;;;5.40;4.27;;;23.80;22.40;;;;;;5053439;28;20478;-35
2022/03/27 11:07:19;;;;;;;7.27;3.80;;;23.90;20.20;;;;;;5053360;28;20725;-34
2022/03/27 11:09:45;;;;;;;6.37;3.97;;;23.80;23.10;;;;;;5053518;28;20407;-34
2022/03/27 11:12:24;;;;;;;5.70;4.53;;;23.80;21.10;;;;;;5053360;28;20448;-34
2022/03/27 11:14:52;;;;;;;4.57;3.53;;;23.60;20.00;;;;;;5053340;28;20846;-34
2022/03/27 11:17:44;;;;;;;7.33;4.40;;;23.60;20.80;;;;;;5053219;28;20404;-34
2022/03/27 11:20:25;;;;;;;6.77;4.03;;;23.40;20.10;;;;;;5053187;28;20407;-34
2022/03/27 11:22:51;;;;;;;6.83;4.90;;;23.20;20.50;;;;;;5053403;28;20427;-34
2022/03/27 11:25:28;;;;;;;6.60;4.30;;;23.00;20.00;;;;;;5053236;28;20453;-34
2022/03/27 11:27:55;;;;;;;7.07;4.30;;;22.50;20.40;;;;;;5053141;28;20740;-34
2022/03/27 11:30:21;;;;;;;6.33;3.80;;;22.40;21.30;;;;;;5053106;28;20471;-34
2022/03/27 11:33:11;;;;;;;5.77;3.67;;;22.40;20.60;;;;;;5052939;28;20428;-34
2022/03/27 11:35:43;;;;;;;4.40;3.50;;;22.60;22.80;;;;;;5052930;28;20404;-34
2022/03/27 11:38:23;;;;;;;3.43;2.47;;;23.00;22.00;;;;;;5047467;28;20502;-35
2022/03/27 11:40:49;;;;;;;4.90;3.90;;;23.20;19.10;;;;;;5051518;28;20440;-34
2022/03/27 11:43:34;;;;;;;4.53;3.13;;;22.80;19.60;;;;;;5053041;28;20757;-35
2022/03/27 11:46:01;;;;;;;5.50;3.47;;;22.70;21.00;;;;;;5052804;28;20438;-34
2022/03/27 11:48:28;;;;;;;4.43;3.00;;;22.90;21.80;;;;;;5052676;28;20450;-34
2022/03/27 11:50:55;;;;;;;4.87;3.67;;;23.00;19.80;;;;;;5052341;28;20482;-35
2022/03/27 11:53:35;;;;;;;5.57;3.30;;;22.80;19.40;;;;;;5053090;28;20439;-34
2022/03/27 11:56:11;;;;;;;4.87;3.17;;;22.90;19.80;;;;;;5052746;28;20526;-34
2022/03/27 11:58:38;;;;;;;5.10;3.10;;;23.20;21.20;;;;;;5052381;28;20957;-34
2022/03/27 12:01:09;;;;;;;4.83;3.10;;;23.40;18.50;;;;;;5052423;28;20760;-34
2022/03/27 12:03:36;;;;;;;7.90;4.07;;;23.50;19.20;;;;;;5052382;28;20449;-35
2022/03/27 12:06:09;;;;;;;6.50;3.90;;;23.60;19.30;;;;;;5052426;28;20420;-35
2022/03/27 12:08:38;;;;;;;5.20;3.37;;;23.60;18.00;;;;;;5052126;28;20487;-34
2022/03/27 12:11:06;;;;;;;4.40;3.57;;;23.70;17.40;;;;;;5052312;28;20450;-34
2022/03/27 12:13:43;;;;;;;4.37;3.13;;;23.30;17.70;;;;;;5052152;28;20439;-35
2022/03/27 12:16:22;;;;;;;3.40;2.30;;;23.20;18.20;;;;;;5052458;28;20469;-35
2022/03/27 12:18:49;;;;;;;5.10;3.13;;;23.30;18.10;;;;;;5052254;28;20418;-34
2022/03/27 12:21:23;;;;;;;6.70;3.30;;;23.50;17.70;;;;;;5052266;28;20934;-35
2022/03/27 12:24:02;;;;;;;3.70;2.30;;;23.80;18.80;;;;;;5052133;28;20431;-34
2022/03/27 12:29:50;;;;;;;5.40;4.00;;;24.20;16.30;;;;;;5051850;28;20784;-34
2022/03/27 12:32:28;;;;;;;3.10;2.27;;;24.50;17.60;;;;;;5051956;28;20399;-34
2022/03/27 12:35:01;;;;;;;3.57;2.17;;;24.90;18.20;;;;;;5052048;28;20387;-34
2022/03/27 12:37:29;;;;;;;4.03;2.20;;;25.20;18.30;;;;;;5052289;28;20376;-35
2022/03/27 12:39:55;;;;;;;4.10;2.83;;;25.60;15.40;;;;;;5051729;28;20404;-35
2022/03/27 12:42:34;;;;;;;5.10;3.50;;;25.60;15.60;;;;;;5051719;28;20399;-34
2022/03/27 12:45:21;;;;;;;3.70;2.73;;;25.60;16.40;;;;;;5052124;28;20732;-35
2022/03/27 12:47:55;;;;;;;4.57;2.73;;;25.60;14.60;;;;;;5051901;28;20828;-36
2022/03/27 12:50:44;;;;;;;3.90;2.60;;;25.40;16.20;;;;;;5051543;28;20428;-36
2022/03/27 12:53:22;;;;;;;3.67;2.40;;;25.40;16.50;;;;;;5051637;28;20451;-35
2022/03/27 12:56:04;;;;;;;3.70;2.03;;;25.50;14.60;;;;;;5052077;28;20412;-36
2022/03/27 12:58:37;;;;;;;4.50;2.37;;;25.00;15.10;;;;;;5051869;28;20419;-34
2022/03/27 13:01:14;;;;;;;4.07;2.40;;;24.80;14.80;;;;;;5051644;28;20408;-35
2022/03/27 13:03:57;;;;;;;4.07;2.57;;;24.70;14.70;;;;;;5042143;28;20456;-35
2022/03/27 13:06:37;;;;;;;2.30;1.63;;;24.60;14.90;;;;;;5051700;28;20404;-34